Joacaba, Brazil
Current Conditions -  °F | °C
As of 8:00 PM on Tuesday 27 Jan 2015 (Local Time) from SBCH Reporting Station
Thunderstorm Thunderstorm  
Wind Chill: 72°   Ceiling: 8000
Heat Index: 72°   Visibility: 6mi
Dew Point: 68°   Wind: 7mph
Humidity: 88%   Direction: 150°SSE
Pressure: NA   Gusts: NA
Location:  27.17°S, 51.5°W
Report Text: SBCH 272200Z 15006KT 9000 -TSRA SCT020 FEW030CB OVC080 22/20 Q1014
Loading
Personal Weather Stations






























Interactive Weather Map New forecast layout! Learn more

10-Day Weather Forecast

Advertisements
Track Severe Weather on mobile